Close Search

Base
°C
Summit
°C

WEATHER AT A GLANCE

Image Slideshow

RMR Village

Revelstoke Mountain Resort -  RMR Village Webcam

Top of The Stoke

Revelstoke Mountain Resort -  Top of The Stoke Webcam

Top of Stellar

Revelstoke Mountain Resort -  Top of Stellar Webcam

Mackenzie Outpost

Revelstoke Mountain Resort -  Mackenzie Outpost Webcam

Ripper

Revelstoke Mountain Resort -  Ripper Webcam
Base
°C
Summit
°C
Wind (Summit)
km/h

Today's Forecast

Subpeak Weather

Time Avg. Air Temp Dew Point Avg. Rel Humidity Avg. 2 Min Wind Speed Max Gust Velocity MGV Time MGV Direction Avg. Spot Wind Velocity
2026-09-03 17:35:002° C2° C100%5 km/h9 km/h17:31:00SE5 km/h
16:35:002° C2° C100%9 km/h15 km/h16:35:00S10 km/h
15:35:001° C2° C100%13 km/h20 km/h15:31:00S13 km/h
14:35:001° C1° C100%9 km/h15 km/h14:31:00SE11 km/h
13:35:001° C1° C100%13 km/h17 km/h13:35:00S12 km/h
12:35:001° C1° C100%14 km/h16 km/h12:35:00S13 km/h
11:35:001° C1° C100%18 km/h24 km/h11:35:00S18 km/h
10:35:002° C3° C100%6 km/h11 km/h10:35:00S5 km/h
09:35:002° C2° C100%13 km/h19 km/h09:31:00S13 km/h
08:35:003° C3° C100%1 km/h3 km/h08:35:00SE1 km/h
07:35:003° C3° C100%5 km/h7 km/h07:31:00S5 km/h
06:35:003° C3° C100%6 km/h8 km/h06:32:00S5 km/h
05:35:003° C3° C100%9 km/h13 km/h05:33:00SE10 km/h
04:35:004° C2° C88%22 km/h28 km/h04:35:00SE21 km/h
03:35:004° C3° C92%17 km/h22 km/h03:31:00SE19 km/h
02:35:004° C2° C92%10 km/h13 km/h02:33:00E10 km/h
01:35:004° C3° C96%17 km/h19 km/h01:34:00SE16 km/h
00:35:003° C3° C100%10 km/h14 km/h00:31:00SE10 km/h
23:35:004° C3° C96%19 km/h25 km/h23:35:00S16 km/h
22:35:004° C4° C100%27 km/h34 km/h22:34:00SE27 km/h
21:35:004° C5° C100%22 km/h29 km/h21:35:00SE21 km/h
20:35:004° C5° C100%26 km/h35 km/h20:33:00S28 km/h
19:35:005° C5° C100%33 km/h39 km/h19:34:00SE32 km/h
18:35:006° C4° C89%19 km/h25 km/h18:32:00E21 km/h

Time Avg. Air Temp Dew Point Avg. Rel Humidity Avg. 2 Min Wind Speed Max Gust Velocity MGV Time MGV Direction Avg. Spot Wind Velocity
2026-09-03 17:35:002° C2° C100%5 km/h9 km/h17:31:00SE5 km/h
17:30:002° C2° C100%5 km/h9 km/h17:26:00S7 km/h
17:25:002° C2° C100%2 km/h9 km/h17:22:00S5 km/h
17:20:002° C2° C100%4 km/h8 km/h17:17:00SE5 km/h
17:15:002° C2° C100%4 km/h7 km/h17:12:00SE5 km/h
17:10:002° C2° C100%5 km/h8 km/h17:10:00SE5 km/h
17:05:001° C2° C100%4 km/h6 km/h17:05:00SE3 km/h
17:00:001° C1° C100%4 km/h10 km/h16:56:00S6 km/h
16:55:001° C1° C100%7 km/h13 km/h16:51:00SE9 km/h
16:50:001° C1° C100%8 km/h15 km/h16:47:00S10 km/h
16:45:002° C1° C100%12 km/h16 km/h16:45:00S13 km/h
16:40:002° C2° C100%9 km/h13 km/h16:36:00S8 km/h
16:35:002° C2° C100%9 km/h15 km/h16:35:00S10 km/h

We value your privacy
We use cookies to enhance your browsing experience, serve personalized ads or content, and analyze our traffic. By clicking "Allow Cookies", you consent to our use of cookies. For additional details view our Privacy Policy.
Cookie preferences

You can control how your data is used on our website. Learn more below about the cookies we use by reviewing our Privacy Policy.

Your cookie preferences have been saved.